createdAt,value
2023-02-21T00:00:56.953Z,100555.91
2023-02-21T00:04:16.817Z,100556.03
2023-02-21T00:07:37.917Z,100563.31
2023-02-21T00:10:57.723Z,100549.91
2023-02-21T00:14:17.946Z,100556.34
2023-02-21T00:17:37.930Z,100560.75
2023-02-21T00:20:57.736Z,100560.91
2023-02-21T00:24:17.616Z,100575.44
2023-02-21T00:27:37.653Z,100571.91
2023-02-21T00:30:58.054Z,100587.31
2023-02-21T00:34:18.285Z,100574.75
2023-02-21T00:37:38.087Z,100572.91
2023-02-21T00:40:58.248Z,100581.19
2023-02-21T00:44:18.326Z,100572.22
2023-02-21T00:47:38.337Z,100581.31
2023-02-21T00:50:58.661Z,100570.47
2023-02-21T00:54:18.863Z,100563.38
2023-02-21T00:57:39.274Z,100560.66
2023-02-21T01:00:59.498Z,100557.09
2023-02-21T01:04:19.806Z,100558.97
2023-02-21T01:07:39.962Z,100549.13
2023-02-21T01:11:00.132Z,100556.41
2023-02-21T01:14:21.342Z,100558.25
2023-02-21T01:17:41.151Z,100559.25
2023-02-21T01:21:01.293Z,100562.84
2023-02-21T01:24:22.520Z,100558.41
2023-02-21T01:27:42.400Z,100567.53
2023-02-21T01:31:02.730Z,100567.53
2023-02-21T01:34:24.161Z,100570.25
2023-02-21T01:37:44.354Z,100578.38
2023-02-21T01:41:04.437Z,100572.25
2023-02-21T01:44:45.763Z,100577.69
2023-02-21T01:48:05.834Z,100574.25
2023-02-21T01:51:28.735Z,100579.69
2023-02-21T01:54:52.922Z,100575.09
2023-02-21T01:58:14.596Z,100573.41
2023-02-21T02:01:44.794Z,100581.53
2023-02-21T02:05:06.999Z,100578.13
2023-02-21T02:08:27.145Z,100575.41
2023-02-21T02:12:05.981Z,100577.28
2023-02-21T02:15:48.404Z,100575.41
2023-02-21T02:19:02.739Z,100571.84
2023-02-21T02:22:22.812Z,100572.00
2023-02-21T02:25:27.323Z,100571.16
2023-02-21T02:28:53.646Z,100570.16
2023-02-21T02:32:06.330Z,100556.75
2023-02-21T02:35:32.203Z,100573.00
2023-02-21T02:38:41.876Z,100570.44
2023-02-21T02:42:05.698Z,100572.16
2023-02-21T02:45:12.335Z,100587.84
2023-02-21T02:48:22.048Z,100579.72
2023-02-21T02:51:25.483Z,100576.16
2023-02-21T02:54:27.948Z,100577.88
2023-02-21T02:57:38.168Z,100578.88
2023-02-21T03:00:45.842Z,100570.75
2023-02-21T03:04:25.344Z,100567.19
2023-02-21T03:07:41.222Z,100578.03
2023-02-21T03:10:52.859Z,100574.59
2023-02-21T03:14:14.636Z,100574.59
2023-02-21T03:17:20.843Z,100578.16
2023-02-21T03:20:23.172Z,100576.47
2023-02-21T03:23:28.234Z,100578.34
2023-02-21T03:26:34.777Z,100577.47
2023-02-21T03:29:51.374Z,100566.66
2023-02-21T03:32:55.598Z,100562.22
2023-02-21T03:36:00.384Z,100570.50
2023-02-21T03:39:03.127Z,100557.81
2023-02-21T03:42:04.670Z,100570.50
2023-02-21T03:45:07.445Z,100564.22
2023-02-21T03:48:09.188Z,100569.63
2023-02-21T03:51:12.715Z,100553.38
2023-02-21T03:54:14.806Z,100554.41
2023-02-21T03:57:19.866Z,100558.97
2023-02-21T04:00:22.929Z,100557.09
2023-02-21T04:03:27.638Z,100551.69
2023-02-21T04:06:33.197Z,100541.56
2023-02-21T04:09:34.845Z,100537.00
2023-02-21T04:12:36.618Z,100525.00
2023-02-21T04:15:38.516Z,100533.00
2023-02-21T04:18:40.512Z,100535.53
2023-02-21T04:21:43.838Z,100533.22
2023-02-21T04:24:48.009Z,100538.50
2023-02-21T04:27:50.358Z,100527.50
2023-02-21T04:30:52.453Z,100529.03
2023-02-21T04:34:10.645Z,100528.91
2023-02-21T04:37:15.289Z,100520.31
2023-02-21T04:40:17.582Z,100513.75
2023-02-21T04:43:21.019Z,100512.72
2023-02-21T04:46:22.513Z,100519.72
2023-02-21T04:49:27.467Z,100518.53
2023-02-21T04:52:29.007Z,100511.97
2023-02-21T04:55:30.499Z,100510.97
2023-02-21T04:58:44.242Z,100513.69
2023-02-21T05:01:46.538Z,100508.94
2023-02-21T05:04:48.056Z,100509.81
2023-02-21T05:07:49.625Z,100513.19
2023-02-21T05:10:51.449Z,100519.66
2023-02-21T05:13:53.805Z,100519.50
2023-02-21T05:16:55.370Z,100528.63
2023-02-21T05:19:57.131Z,100527.78
2023-02-21T05:23:04.774Z,100520.50
2023-02-21T05:26:13.808Z,100532.34
2023-02-21T05:29:15.478Z,100528.78
2023-02-21T05:32:17.866Z,100534.22
2023-02-21T05:35:20.002Z,100531.66
2023-02-21T05:38:23.094Z,100536.22
2023-02-21T05:41:25.005Z,100542.47
2023-02-21T05:44:26.518Z,100522.97
2023-02-21T05:47:28.017Z,100537.38
2023-02-21T05:50:30.089Z,100545.50
2023-02-21T05:53:31.553Z,100536.53
2023-02-21T05:56:41.205Z,100548.03
2023-02-21T05:59:43.532Z,100543.63
2023-02-21T06:02:45.062Z,100548.03
2023-02-21T06:05:46.613Z,100546.22
2023-02-21T06:08:49.458Z,100544.34
2023-02-21T06:11:50.945Z,100543.31
2023-02-21T06:14:52.812Z,100540.47
2023-02-21T06:17:54.282Z,100534.88
2023-02-21T06:20:55.747Z,100545.44
2023-02-21T06:23:57.625Z,100547.13
2023-02-21T06:26:59.104Z,100545.13
2023-02-21T06:30:00.584Z,100545.97
2023-02-21T06:33:02.211Z,100542.25
2023-02-21T06:36:09.088Z,100533.97
2023-02-21T06:39:11.924Z,100541.09
2023-02-21T06:42:17.522Z,100544.50
2023-02-21T06:45:18.996Z,100548.22
2023-02-21T06:48:20.557Z,100558.22
2023-02-21T06:51:28.982Z,100560.06
2023-02-21T06:54:30.507Z,100573.63
2023-02-21T06:57:32.002Z,100566.38
2023-02-21T07:00:33.634Z,100576.31
2023-02-21T07:03:39.344Z,100582.63
2023-02-21T07:06:40.851Z,100584.63
2023-02-21T07:09:42.527Z,100584.63
2023-02-21T07:12:44.007Z,100582.06
2023-02-21T07:15:45.628Z,100587.47
2023-02-21T07:18:47.394Z,100584.78
2023-02-21T07:21:48.933Z,100583.06
2023-02-21T07:24:50.435Z,100601.22
2023-02-21T07:27:52.816Z,100600.50
2023-02-21T07:30:54.411Z,100605.06
2023-02-21T07:33:55.931Z,100609.78
2023-02-21T07:36:57.456Z,100607.22
2023-02-21T07:39:59.088Z,100612.81
2023-02-21T07:43:00.624Z,100611.94
2023-02-21T07:46:02.214Z,100610.09
2023-02-21T07:49:03.815Z,100613.78
2023-02-21T07:52:05.719Z,100620.22
2023-02-21T07:55:07.294Z,100615.78
2023-02-21T07:58:08.856Z,100629.34
2023-02-21T08:01:10.411Z,100626.81
2023-02-21T08:04:13.088Z,100628.66
2023-02-21T08:07:14.602Z,100627.78
2023-02-21T08:10:26.912Z,100637.78
2023-02-21T08:13:28.400Z,100633.50
2023-02-21T08:16:29.923Z,100648.78
2023-02-21T08:19:31.414Z,100646.22
2023-02-21T08:22:32.988Z,100659.75
2023-02-21T08:25:34.422Z,100648.94
2023-02-21T08:28:37.265Z,100653.50
2023-02-21T08:31:40.314Z,100648.94
2023-02-21T08:34:45.173Z,100654.34
2023-02-21T08:37:48.484Z,100655.38
2023-02-21T08:40:51.361Z,100653.63
2023-02-21T08:43:52.874Z,100662.78
2023-02-21T08:46:54.414Z,100651.94
2023-02-21T08:49:55.930Z,100661.06
2023-02-21T08:52:57.532Z,100669.19
2023-02-21T08:55:59.003Z,100667.50
2023-02-21T08:59:00.949Z,100679.16
2023-02-21T09:02:02.583Z,100683.75
2023-02-21T09:05:04.423Z,100683.75
2023-02-21T09:08:09.135Z,100683.88
2023-02-21T09:11:10.697Z,100672.19
2023-02-21T09:14:12.259Z,100683.03
2023-02-21T09:17:14.586Z,100685.75
2023-02-21T09:20:19.879Z,100675.75
2023-02-21T09:23:21.785Z,100669.47
2023-02-21T09:26:24.219Z,100665.09
2023-02-21T09:29:31.626Z,100661.34
2023-02-21T09:32:39.706Z,100655.94
2023-02-21T09:35:41.480Z,100657.81
2023-02-21T09:38:43.024Z,100660.66
2023-02-21T09:41:45.090Z,100662.38
2023-02-21T09:44:47.720Z,100662.38
2023-02-21T09:47:53.182Z,100667.78
2023-02-21T09:51:00.055Z,100673.22
2023-02-21T09:54:03.326Z,100663.34
2023-02-21T09:57:11.952Z,100669.66
2023-02-21T10:00:23.418Z,100666.94
2023-02-21T10:03:57.486Z,100666.94
2023-02-21T10:07:25.803Z,100676.91
2023-02-21T10:10:34.972Z,100670.63
2023-02-21T10:13:46.048Z,100669.66
2023-02-21T10:16:58.974Z,100665.22
2023-02-21T10:20:28.095Z,100662.50
2023-02-21T10:23:35.849Z,100667.09
2023-02-21T10:26:42.362Z,100682.50
2023-02-21T10:29:50.738Z,100684.34
2023-02-21T10:32:53.047Z,100687.19
2023-02-21T10:35:55.120Z,100680.75
2023-02-21T10:39:09.920Z,100691.59
2023-02-21T10:42:28.857Z,100694.31
2023-02-21T10:45:36.416Z,100690.75
2023-02-21T10:48:41.416Z,100693.47
2023-02-21T10:51:43.033Z,100684.50
2023-02-21T10:54:59.909Z,100691.59
2023-02-21T10:58:11.486Z,100687.06
2023-02-21T11:01:30.349Z,100693.31
2023-02-21T11:04:35.346Z,100692.47
2023-02-21T11:07:37.350Z,100692.63
2023-02-21T11:10:44.127Z,100687.91
2023-02-21T11:13:45.759Z,100695.31
2023-02-21T11:17:04.216Z,100697.91
2023-02-21T11:20:14.802Z,100695.19
2023-02-21T11:23:30.353Z,100697.03
2023-02-21T11:26:53.497Z,100697.91
2023-02-21T11:29:55.734Z,100699.91
2023-02-21T11:33:00.814Z,100699.91
2023-02-21T11:36:20.863Z,100695.31
2023-02-21T11:39:33.330Z,100698.88
2023-02-21T11:42:35.057Z,100688.22
2023-02-21T11:45:40.845Z,100689.06
2023-02-21T11:48:50.189Z,100684.50
2023-02-21T11:52:02.947Z,100683.47
2023-02-21T11:55:12.339Z,100680.94
2023-02-21T11:58:54.078Z,100691.59
2023-02-21T12:02:29.278Z,100685.34
2023-02-21T12:05:50.414Z,100680.75
2023-02-21T12:09:01.745Z,100678.06
2023-02-21T12:12:21.291Z,100687.06
2023-02-21T12:15:30.049Z,100680.94
2023-02-21T12:18:50.020Z,100689.06
2023-02-21T12:22:09.972Z,100685.19
2023-02-21T12:25:36.753Z,100687.91
2023-02-21T12:28:56.275Z,100681.66
2023-02-21T12:32:24.217Z,100672.63
2023-02-21T12:36:06.537Z,100679.91
2023-02-21T12:39:27.817Z,100679.06
2023-02-21T12:42:47.165Z,100678.34
2023-02-21T12:46:42.852Z,100669.25
2023-02-21T12:49:50.397Z,100670.22
2023-02-21T12:53:07.502Z,100666.53
2023-02-21T12:56:35.174Z,100655.69
2023-02-21T13:00:07.891Z,100662.09
2023-02-21T13:03:29.984Z,100657.69
2023-02-21T13:06:31.745Z,100658.69
2023-02-21T13:09:43.029Z,100653.97
2023-02-21T13:12:54.265Z,100653.13
2023-02-21T13:15:57.565Z,100662.28
2023-02-21T13:19:07.671Z,100658.53
2023-02-21T13:23:05.507Z,100651.25
2023-02-21T13:27:04.163Z,100651.25
2023-02-21T13:30:14.471Z,100641.28
2023-02-21T13:33:26.379Z,100644.88
2023-02-21T13:36:43.110Z,100643.97
2023-02-21T13:39:53.682Z,100647.72
2023-02-21T13:43:06.617Z,100646.69
2023-02-21T13:46:23.448Z,100637.59
2023-02-21T13:49:42.994Z,100646.69
2023-02-21T13:52:53.700Z,100645.84
2023-02-21T13:56:07.331Z,100633.31
2023-02-21T13:59:24.836Z,100643.13
2023-02-21T14:02:32.792Z,100642.28
2023-02-21T14:05:46.933Z,100642.28
2023-02-21T14:08:49.773Z,100636.16
2023-02-21T14:11:54.072Z,100641.44
2023-02-21T14:15:06.964Z,100643.31
2023-02-21T14:18:17.978Z,100641.44
2023-02-21T14:21:34.308Z,100640.59
2023-02-21T14:24:39.383Z,100637.00
2023-02-21T14:27:40.943Z,100641.56
2023-02-21T14:30:42.480Z,100629.91
2023-02-21T14:33:44.098Z,100629.91
2023-02-21T14:36:48.865Z,100623.63
2023-02-21T14:40:21.546Z,100632.47
2023-02-21T14:43:41.463Z,100631.91
2023-02-21T14:47:13.891Z,100628.03
2023-02-21T14:50:32.258Z,100632.75
2023-02-21T14:53:56.944Z,100635.44
2023-02-21T14:57:35.987Z,100638.16
2023-02-21T15:01:07.541Z,100635.44
2023-02-21T15:04:18.896Z,100632.91
2023-02-21T15:07:42.852Z,100638.31
2023-02-21T15:10:46.768Z,100636.59
2023-02-21T15:13:48.479Z,100639.47
2023-02-21T15:17:16.635Z,100634.78
2023-02-21T15:20:18.189Z,100641.34
2023-02-21T15:23:29.541Z,100633.91
2023-02-21T15:26:32.284Z,100636.78
2023-02-21T15:29:33.852Z,100636.78
2023-02-21T15:32:36.241Z,100642.19
2023-02-21T15:35:53.630Z,100640.31
2023-02-21T15:39:07.390Z,100635.03
2023-02-21T15:42:11.499Z,100631.34
2023-02-21T15:45:20.873Z,100638.47
2023-02-21T15:48:22.766Z,100635.75
2023-02-21T15:51:25.037Z,100639.19
2023-02-21T15:54:28.452Z,100635.31
2023-02-21T15:57:29.907Z,100633.31
2023-02-21T16:01:08.066Z,100633.84
2023-02-21T16:04:15.900Z,100637.28
2023-02-21T16:07:23.660Z,100632.41
2023-02-21T16:10:26.016Z,100626.13
2023-02-21T16:13:35.550Z,100616.84
2023-02-21T16:16:37.358Z,100629.25
2023-02-21T16:19:41.137Z,100628.94
2023-02-21T16:23:07.627Z,100628.66
2023-02-21T16:26:12.065Z,100631.22
2023-02-21T16:29:13.629Z,100633.59
2023-02-21T16:32:19.567Z,100633.34
2023-02-21T16:35:23.602Z,100632.31
2023-02-21T16:38:27.027Z,100630.31
2023-02-21T16:41:28.637Z,100632.00
2023-02-21T16:44:30.104Z,100631.03
2023-02-21T16:47:31.604Z,100630.84
2023-02-21T16:50:39.092Z,100636.97
2023-02-21T16:53:41.147Z,100641.38
2023-02-21T16:56:46.067Z,100649.38
2023-02-21T16:59:47.537Z,100645.81
2023-02-21T17:02:50.822Z,100648.34
2023-02-21T17:05:53.138Z,100652.94
2023-02-21T17:08:54.854Z,100654.66
2023-02-21T17:11:56.393Z,100656.50
2023-02-21T17:14:57.868Z,100651.06
2023-02-21T17:17:59.908Z,100649.25
2023-02-21T17:21:01.826Z,100650.22
2023-02-21T17:24:04.093Z,100648.34
2023-02-21T17:27:05.818Z,100651.94
2023-02-21T17:30:08.285Z,100652.78
2023-02-21T17:33:11.042Z,100657.19
2023-02-21T17:36:20.732Z,100661.63
2023-02-21T17:39:22.220Z,100653.63
2023-02-21T17:42:24.692Z,100657.19
2023-02-21T17:45:26.425Z,100657.19
2023-02-21T17:48:27.921Z,100663.63
2023-02-21T17:51:29.476Z,100665.50
2023-02-21T17:54:31.172Z,100668.22
2023-02-21T17:57:37.069Z,100665.34
2023-02-21T18:00:39.383Z,100675.47
2023-02-21T18:03:40.865Z,100669.91
2023-02-21T18:06:45.330Z,100672.63
2023-02-21T18:09:47.554Z,100678.88
2023-02-21T18:12:51.197Z,100678.03
2023-02-21T18:15:53.021Z,100683.31
2023-02-21T18:18:54.776Z,100672.47
2023-02-21T18:21:56.304Z,100684.16
2023-02-21T18:24:57.791Z,100679.59
2023-02-21T18:28:00.037Z,100684.88
2023-02-21T18:31:01.767Z,100689.28
2023-02-21T18:34:04.460Z,100686.44
2023-02-21T18:37:08.039Z,100685.41
2023-02-21T18:40:10.179Z,100691.69
2023-02-21T18:43:19.781Z,100693.41
2023-02-21T18:46:22.090Z,100693.41
2023-02-21T18:49:24.381Z,100690.69
2023-02-21T18:52:25.975Z,100696.97
2023-02-21T18:55:27.584Z,100688.66
2023-02-21T18:58:29.141Z,100688.66
2023-02-21T19:01:30.685Z,100693.09
2023-02-21T19:04:33.071Z,100694.97
2023-02-21T19:07:36.371Z,100691.38
2023-02-21T19:10:37.845Z,100685.97
2023-02-21T19:13:39.408Z,100692.41
2023-02-21T19:16:41.038Z,100694.25
2023-02-21T19:19:42.613Z,100696.97
2023-02-21T19:22:44.399Z,100695.09
2023-02-21T19:25:46.098Z,100693.09
2023-02-21T19:28:49.020Z,100692.09
2023-02-21T19:31:50.597Z,100697.50
2023-02-21T19:34:52.206Z,100692.09
2023-02-21T19:37:54.419Z,100696.53
2023-02-21T19:40:55.909Z,100692.09
2023-02-21T19:43:57.473Z,100685.81
2023-02-21T19:46:59.002Z,100699.25
2023-02-21T19:50:00.626Z,100692.09
2023-02-21T19:53:02.455Z,100698.34
2023-02-21T19:56:04.170Z,100696.66
2023-02-21T19:59:05.914Z,100701.94
2023-02-21T20:02:10.693Z,100701.78
2023-02-21T20:05:16.236Z,100701.94
2023-02-21T20:08:18.064Z,100697.38
2023-02-21T20:11:20.988Z,100699.25
2023-02-21T20:14:22.432Z,100702.78
2023-02-21T20:17:23.930Z,100706.34
2023-02-21T20:20:25.423Z,100704.66
2023-02-21T20:23:26.905Z,100709.06
2023-02-21T20:26:29.594Z,100707.06
2023-02-21T20:29:31.191Z,100702.63
2023-02-21T20:32:32.806Z,100698.22
2023-02-21T20:35:34.279Z,100704.50
2023-02-21T20:38:38.981Z,100698.94
2023-02-21T20:41:40.538Z,100698.09
2023-02-21T20:44:44.030Z,100689.78
2023-02-21T20:47:45.572Z,100693.50
2023-02-21T20:50:47.236Z,100686.22
2023-02-21T20:53:49.766Z,100681.63
2023-02-21T20:56:54.448Z,100687.91
2023-02-21T20:59:56.654Z,100679.78
2023-02-21T21:02:59.207Z,100685.19
2023-02-21T21:06:00.679Z,100680.66
2023-02-21T21:09:02.187Z,100681.50
2023-02-21T21:12:10.570Z,100676.78
2023-02-21T21:15:14.255Z,100681.19
2023-02-21T21:18:15.743Z,100676.91
2023-02-21T21:21:18.377Z,100684.03
2023-02-21T21:24:20.863Z,100680.34
2023-02-21T21:27:22.396Z,100677.63
2023-02-21T21:30:24.847Z,100678.47
2023-02-21T21:33:27.605Z,100680.16
2023-02-21T21:36:29.054Z,100671.19
2023-02-21T21:39:31.475Z,100670.34
2023-02-21T21:42:33.158Z,100672.03
2023-02-21T21:45:44.044Z,100666.59
2023-02-21T21:48:45.610Z,100669.31
2023-02-21T21:51:48.420Z,100675.75
2023-02-21T21:54:50.085Z,100669.31
2023-02-21T21:57:55.938Z,100664.91
2023-02-21T22:00:57.665Z,100669.50
2023-02-21T22:03:59.174Z,100665.94
2023-02-21T22:07:00.631Z,100664.91
2023-02-21T22:10:02.071Z,100659.81
2023-02-21T22:13:13.427Z,100660.66
2023-02-21T22:16:15.102Z,100649.09
2023-02-21T22:19:18.342Z,100649.09
2023-02-21T22:22:19.824Z,100648.97
2023-02-21T22:25:21.283Z,100646.38
2023-02-21T22:28:22.736Z,100641.13
2023-02-21T22:31:25.785Z,100642.81
2023-02-21T22:34:27.406Z,100642.13
2023-02-21T22:37:28.957Z,100634.00
2023-02-21T22:40:35.363Z,100639.41
2023-02-21T22:43:36.861Z,100633.28
2023-02-21T22:46:42.185Z,100628.88
2023-02-21T22:49:45.364Z,100629.91
2023-02-21T22:52:56.003Z,100622.59
2023-02-21T22:55:58.778Z,100625.63
2023-02-21T22:59:00.287Z,100616.78
2023-02-21T23:02:04.053Z,100615.78
2023-02-21T23:05:05.842Z,100609.66
2023-02-21T23:08:07.387Z,100604.22
2023-02-21T23:11:08.921Z,100600.66
2023-02-21T23:14:10.445Z,100599.81
2023-02-21T23:17:12.203Z,100594.53
2023-02-21T23:20:16.755Z,100596.25
2023-02-21T23:23:19.380Z,100593.69
2023-02-21T23:26:20.882Z,100587.41
2023-02-21T23:29:25.539Z,100592.00
2023-02-21T23:32:27.042Z,100588.59
2023-02-21T23:35:28.522Z,100583.31
2023-02-21T23:38:30.151Z,100586.00
2023-02-21T23:41:34.253Z,100585.16
2023-02-21T23:44:36.140Z,100587.88
2023-02-21T23:47:41.988Z,100594.16
2023-02-21T23:50:46.417Z,100588.91
2023-02-21T23:53:48.692Z,100594.44
2023-02-21T23:56:50.290Z,100594.63
2023-02-21T23:59:52.492Z,100596.47
